createdAt,value
2022-08-17T00:00:08.333Z,428.42
2022-08-17T00:05:15.576Z,429.11
2022-08-17T00:10:22.753Z,429.51
2022-08-17T00:15:29.954Z,429.56
2022-08-17T00:20:37.220Z,429.55
2022-08-17T00:25:44.437Z,430.54
2022-08-17T00:30:53.510Z,431.85
2022-08-17T00:35:58.806Z,431.49
2022-08-17T00:41:06.076Z,432.79
2022-08-17T00:46:13.249Z,433.08
2022-08-17T00:51:20.464Z,434.63
2022-08-17T00:56:27.625Z,435.57
2022-08-17T01:01:34.941Z,435.82
2022-08-17T01:06:42.082Z,436.08
2022-08-17T01:11:49.365Z,436.88
2022-08-17T01:16:56.639Z,436.25
2022-08-17T01:22:03.862Z,435.51
2022-08-17T01:27:11.051Z,435.86
2022-08-17T01:32:18.320Z,437.20
2022-08-17T01:37:25.567Z,436.40
2022-08-17T01:42:32.720Z,435.48
2022-08-17T01:47:40.000Z,435.41
2022-08-17T01:52:47.365Z,434.79
2022-08-17T01:57:54.744Z,434.77
2022-08-17T02:03:01.966Z,435.00
2022-08-17T02:08:09.227Z,434.68
2022-08-17T02:13:17.239Z,435.66
2022-08-17T02:18:24.593Z,435.50
2022-08-17T02:23:31.943Z,435.16
2022-08-17T02:28:39.199Z,434.78
2022-08-17T02:33:46.404Z,433.72
2022-08-17T02:38:53.690Z,433.86
2022-08-17T02:44:01.048Z,433.27
2022-08-17T02:49:08.224Z,432.44
2022-08-17T02:54:40.471Z,432.52
2022-08-17T02:59:22.901Z,432.65
2022-08-17T03:04:30.402Z,432.28
2022-08-17T03:09:37.724Z,433.09
2022-08-17T03:14:45.017Z,433.03
2022-08-17T03:19:52.548Z,432.75
2022-08-17T03:24:59.812Z,432.59
2022-08-17T03:30:07.075Z,431.92
2022-08-17T03:35:14.260Z,431.27
2022-08-17T03:40:34.574Z,430.41
2022-08-17T03:45:28.634Z,429.86
2022-08-17T03:50:35.945Z,428.63
2022-08-17T03:55:43.109Z,427.47
2022-08-17T04:00:50.267Z,427.11
2022-08-17T04:05:57.466Z,426.71
2022-08-17T04:11:04.683Z,425.87
2022-08-17T04:16:11.839Z,425.56
2022-08-17T04:21:19.095Z,425.05
2022-08-17T04:26:52.037Z,424.32
2022-08-17T04:31:33.510Z,423.27
2022-08-17T04:36:40.697Z,422.79
2022-08-17T04:41:47.908Z,421.18
2022-08-17T04:46:55.082Z,421.17
2022-08-17T04:52:04.593Z,419.83
2022-08-17T04:57:09.462Z,420.70
2022-08-17T05:02:16.692Z,421.30
2022-08-17T05:07:27.218Z,420.85
2022-08-17T05:12:31.143Z,420.24
2022-08-17T05:17:38.373Z,419.25
2022-08-17T05:22:45.512Z,418.58
2022-08-17T05:27:52.732Z,416.72
2022-08-17T05:32:59.899Z,415.25
2022-08-17T05:38:07.082Z,416.07
2022-08-17T05:43:14.395Z,414.90
2022-08-17T05:48:21.605Z,416.42
2022-08-17T05:53:28.797Z,414.99
2022-08-17T05:58:36.052Z,414.46
2022-08-17T06:03:43.281Z,414.62
2022-08-17T06:08:51.437Z,414.99
2022-08-17T06:13:58.006Z,415.38
2022-08-17T06:19:05.297Z,416.03
2022-08-17T06:24:12.700Z,416.20
2022-08-17T06:29:20.230Z,415.01
2022-08-17T06:34:27.511Z,414.74
2022-08-17T06:39:34.832Z,413.17
2022-08-17T06:44:50.979Z,413.15
2022-08-17T06:49:55.082Z,414.19
2022-08-17T06:54:57.231Z,415.73
2022-08-17T07:00:04.505Z,415.04
2022-08-17T07:05:11.686Z,416.30
2022-08-17T07:10:18.912Z,416.99
2022-08-17T07:15:26.166Z,417.31
2022-08-17T07:20:33.334Z,415.98
2022-08-17T07:25:40.547Z,415.45
2022-08-17T07:30:47.824Z,416.96
2022-08-17T07:35:55.070Z,417.36
2022-08-17T07:41:02.680Z,417.15
2022-08-17T07:46:09.464Z,416.92
2022-08-17T07:51:16.660Z,416.43
2022-08-17T07:56:23.917Z,417.10
2022-08-17T08:01:41.575Z,417.44
2022-08-17T08:06:38.391Z,417.34
2022-08-17T08:11:45.596Z,417.84
2022-08-17T08:16:52.844Z,418.96
2022-08-17T08:22:00.072Z,417.53
2022-08-17T08:27:07.330Z,418.47
2022-08-17T08:32:14.540Z,418.01
2022-08-17T08:37:32.735Z,418.00
2022-08-17T08:42:29.186Z,418.00
2022-08-17T08:47:36.375Z,417.30
2022-08-17T08:52:43.625Z,417.73
2022-08-17T08:57:51.049Z,415.52
2022-08-17T09:02:58.057Z,414.87
2022-08-17T09:08:05.296Z,415.02
2022-08-17T09:13:12.506Z,414.92
2022-08-17T09:19:00.247Z,414.96
2022-08-17T09:23:26.973Z,414.80
2022-08-17T09:28:34.127Z,415.48
2022-08-17T09:33:41.358Z,416.49
2022-08-17T09:38:48.548Z,416.74
2022-08-17T09:43:55.797Z,416.83
2022-08-17T09:49:03.028Z,417.11
2022-08-17T09:54:37.660Z,416.96
2022-08-17T09:59:17.479Z,416.63
2022-08-17T10:04:29.303Z,417.26
2022-08-17T10:09:31.963Z,416.69
2022-08-17T10:14:44.164Z,417.44
2022-08-17T10:19:46.541Z,417.44
2022-08-17T10:25:21.174Z,418.28
2022-08-17T10:30:01.002Z,418.00
2022-08-17T10:35:08.148Z,418.22
2022-08-17T10:40:15.534Z,418.44
2022-08-17T10:45:22.549Z,418.46
2022-08-17T10:50:29.754Z,418.52
2022-08-17T10:55:36.958Z,418.88
2022-08-17T11:00:44.235Z,418.86
2022-08-17T11:05:51.392Z,418.58
2022-08-17T11:10:58.565Z,418.26
2022-08-17T11:16:08.437Z,417.90
2022-08-17T11:21:12.988Z,417.98
2022-08-17T11:26:20.147Z,417.97
2022-08-17T11:31:38.360Z,417.38
2022-08-17T11:36:34.686Z,416.56
2022-08-17T11:41:41.887Z,416.64
2022-08-17T11:46:51.721Z,417.16
2022-08-17T11:51:56.381Z,417.45
2022-08-17T11:57:03.654Z,417.78
2022-08-17T12:02:11.005Z,418.58
2022-08-17T12:07:18.159Z,418.53
2022-08-17T12:12:25.378Z,419.19
2022-08-17T12:17:39.767Z,419.79
2022-08-17T12:22:39.743Z,420.32
2022-08-17T12:28:04.883Z,420.03
2022-08-17T12:32:54.214Z,420.07
2022-08-17T12:38:01.411Z,420.27
2022-08-17T12:43:08.635Z,421.09
2022-08-17T12:48:16.004Z,420.60
2022-08-17T12:53:23.179Z,420.45
2022-08-17T12:58:30.368Z,420.85
2022-08-17T13:03:37.579Z,421.92
2022-08-17T13:08:44.804Z,423.45
2022-08-17T13:13:52.030Z,424.01
2022-08-17T13:18:59.300Z,424.97
2022-08-17T13:24:06.514Z,425.68
2022-08-17T13:29:13.784Z,425.43
2022-08-17T13:34:20.965Z,426.04
2022-08-17T13:39:28.227Z,426.12
2022-08-17T13:44:35.418Z,426.43
2022-08-17T13:49:48.456Z,428.25
2022-08-17T13:54:49.967Z,429.10
2022-08-17T13:59:57.160Z,428.13
2022-08-17T14:05:06.284Z,428.94
2022-08-17T14:10:11.711Z,430.83
2022-08-17T14:15:18.944Z,430.57
2022-08-17T14:20:26.226Z,430.37
2022-08-17T14:25:33.400Z,431.32
2022-08-17T14:30:40.621Z,429.92
2022-08-17T14:35:47.795Z,431.34
2022-08-17T14:40:55.179Z,432.46
2022-08-17T14:46:02.437Z,432.61
2022-08-17T14:51:09.732Z,432.60
2022-08-17T14:56:16.947Z,433.39
2022-08-17T15:01:24.255Z,433.08
2022-08-17T15:06:31.420Z,433.21
2022-08-17T15:11:38.633Z,434.10
2022-08-17T15:16:45.820Z,433.21
2022-08-17T15:21:53.777Z,433.01
2022-08-17T15:27:01.037Z,432.72
2022-08-17T15:32:08.218Z,432.55
2022-08-17T15:37:15.433Z,432.87
2022-08-17T15:42:22.572Z,433.37
2022-08-17T15:47:29.787Z,433.65
2022-08-17T15:52:36.972Z,432.83
2022-08-17T15:57:44.298Z,433.10
2022-08-17T16:03:45.261Z,433.79
2022-08-17T16:08:00.009Z,434.88
2022-08-17T16:13:17.145Z,436.03
2022-08-17T16:18:14.428Z,437.13
2022-08-17T16:23:21.734Z,438.08
2022-08-17T16:28:35.676Z,438.90
2022-08-17T16:33:36.256Z,439.09
2022-08-17T16:38:43.549Z,439.85
2022-08-17T16:43:50.939Z,440.51
2022-08-17T16:48:58.232Z,440.48
2022-08-17T16:54:05.451Z,439.83
2022-08-17T16:59:30.361Z,440.45
2022-08-17T17:04:20.629Z,440.44
2022-08-17T17:09:27.832Z,439.96
2022-08-17T17:14:35.072Z,440.47
2022-08-17T17:19:42.967Z,440.57
2022-08-17T17:24:50.264Z,440.35
2022-08-17T17:29:56.694Z,440.62
2022-08-17T17:35:03.919Z,441.16
2022-08-17T17:40:11.128Z,441.66
2022-08-17T17:45:18.367Z,441.16
2022-08-17T17:50:25.816Z,439.22
2022-08-17T17:55:33.043Z,439.30
2022-08-17T18:00:40.221Z,440.33
2022-08-17T18:05:47.464Z,440.01
2022-08-17T18:10:54.749Z,440.32
2022-08-17T18:16:01.941Z,439.73
2022-08-17T18:21:09.150Z,438.86
2022-08-17T18:26:16.327Z,439.03
2022-08-17T18:31:23.573Z,437.77
2022-08-17T18:36:30.782Z,436.23
2022-08-17T18:41:38.065Z,435.54
2022-08-17T18:46:45.294Z,433.89
2022-08-17T18:51:52.502Z,432.29
2022-08-17T18:56:59.731Z,432.75
2022-08-17T19:02:12.031Z,433.92
2022-08-17T19:07:14.120Z,432.85
2022-08-17T19:12:24.955Z,432.07
2022-08-17T19:17:28.554Z,431.43
2022-08-17T19:22:35.778Z,429.59
2022-08-17T19:27:46.389Z,427.31
2022-08-17T19:32:50.296Z,425.75
2022-08-17T19:37:57.887Z,423.83
2022-08-17T19:43:05.231Z,423.41
2022-08-17T19:48:12.559Z,421.34
2022-08-17T19:53:19.822Z,420.52
2022-08-17T19:58:27.101Z,419.87
2022-08-17T20:03:34.948Z,421.59
2022-08-17T20:08:42.183Z,420.88
2022-08-17T20:13:49.545Z,420.92
2022-08-17T20:18:56.834Z,419.87
2022-08-17T20:24:04.012Z,417.55
2022-08-17T20:29:11.212Z,417.53
2022-08-17T20:34:19.240Z,417.00
2022-08-17T20:39:26.524Z,416.09
2022-08-17T20:44:33.717Z,417.56
2022-08-17T20:49:40.969Z,417.04
2022-08-17T20:54:48.264Z,415.09
2022-08-17T20:59:55.552Z,414.03
2022-08-17T21:05:06.881Z,413.86
2022-08-17T21:10:10.034Z,411.80
2022-08-17T21:15:18.216Z,409.74
2022-08-17T21:20:25.511Z,408.84
2022-08-17T21:25:32.746Z,406.63
2022-08-17T21:30:39.945Z,404.92
2022-08-17T21:35:47.145Z,401.48
2022-08-17T21:40:55.043Z,400.78
2022-08-17T21:46:02.173Z,400.21
2022-08-17T21:51:09.484Z,398.83
2022-08-17T21:56:16.663Z,397.44
2022-08-17T22:01:23.985Z,396.58
2022-08-17T22:06:31.027Z,394.79
2022-08-17T22:11:38.201Z,396.33
2022-08-17T22:16:45.395Z,395.69
2022-08-17T22:21:52.605Z,395.47
2022-08-17T22:26:59.829Z,395.90
2022-08-17T22:32:07.075Z,394.28
2022-08-17T22:37:14.247Z,395.03
2022-08-17T22:42:21.808Z,395.01
2022-08-17T22:47:29.041Z,393.73
2022-08-17T22:52:36.323Z,393.50
2022-08-17T22:57:43.591Z,394.59
2022-08-17T23:02:55.068Z,394.71
2022-08-17T23:07:58.082Z,395.46
2022-08-17T23:13:05.336Z,396.32
2022-08-17T23:18:12.572Z,395.84
2022-08-17T23:23:23.549Z,396.12
2022-08-17T23:28:27.004Z,395.10
2022-08-17T23:33:34.180Z,394.75
2022-08-17T23:38:41.390Z,395.70
2022-08-17T23:43:54.878Z,395.07
2022-08-17T23:49:02.052Z,395.62
2022-08-17T23:54:09.238Z,395.59
2022-08-17T23:59:17.147Z,396.06
